KBVS Airport Information

Runway Information
Runway 04 Length 3000 ft width 60 ft
Elevation 84 ft Threshold 0 ft Heading 56
Runway 22 Length 3000 ft Width 60 ft
Elevation 97 ft Threshold 0 ft Heading 236
Runway 10 Length 5477 ft width 100 ft
Elevation 144 ft Threshold 0 ft Heading 126
Runway 28 Length 5477 ft Width 100 ft
Elevation 98 ft Threshold 0 ft Heading 306
Airport Frequencies
Type A/D Name WHIDBEY AP Frequency 120.7 MHZ
Type AWOS Name AWOS 3 Frequency 121.125 MHZ
Type UNIC Name CTAF/UNICO Frequency 123.075 MHZ
Airport Navaids
Airport Weather Information & NOTAM
ADDS - METARS form results

(1526 UTC 18 October 2018)
Data provider http://aviationweather.gov/metar/data/
 
METAR text: KBVS 181510Z AUTO 00000KT 10SM CLR 06/05 A3016 RMK A01
Conditions at: KBVS (BURLINGTON/MT V , WA, US) observed 1510 UTC 18 October 2018
Temperature: 6.0°C (43°F)
Dewpoint: 5.0°C (41°F) [RH = 93%]
Pressure (altimeter): 30.16 inches Hg (1021.4 mb)
Winds: calm
Visibility: 10 or more miles (16+ km)
Ceiling: at least 12,000 feet AGL
Clouds: sky clear below 12,000 feet AGL
Weather: automated observation with no human augmentation;
there may or may not be significant weather present at this time

METAR text: KBVS 181455Z AUTO 00000KT 10SM CLR 07/05 A3016 RMK A01
Conditions at: KBVS (BURLINGTON/MT V , WA, US) observed 1455 UTC 18 October 2018
Temperature: 7.0°C (45°F)
Dewpoint: 5.0°C (41°F) [RH = 87%]
Pressure (altimeter): 30.16 inches Hg (1021.4 mb)
Winds: calm
Visibility: 10 or more miles (16+ km)
Ceiling: at least 12,000 feet AGL
Clouds: sky clear below 12,000 feet AGL
Weather: automated observation with no human augmentation;
there may or may not be significant weather present at this time

METAR text: KBVS 181435Z AUTO 00000KT 10SM CLR 06/05 A3015 RMK A01
Conditions at: KBVS (BURLINGTON/MT V , WA, US) observed 1435 UTC 18 October 2018
Temperature: 6.0°C (43°F)
Dewpoint: 5.0°C (41°F) [RH = 93%]
Pressure (altimeter): 30.15 inches Hg (1021.1 mb)
Winds: calm
Visibility: 10 or more miles (16+ km)
Ceiling: at least 12,000 feet AGL
Clouds: sky clear below 12,000 feet AGL
Weather: automated observation with no human augmentation;
there may or may not be significant weather present at this time